Time;durP1;ratioP1;P1;durP2;ratioP2;P2;SDS_P1;SDS_P2;PMS_P1;PMS_P2;Temp;Humidity;BMP_temperature;BMP_pressure;BME280_temperature;BME280_humidity;BME280_pressure;Samples;Min_cycle;Max_cycle;Signal;HPM_P1;HPM_P2
2022/02/06 00:00:19;;;;;;;12.15;6.43;;;22.60;35.60;;;;;;6152654;28;80920;-62
2022/02/06 00:03:20;;;;;;;12.68;7.20;;;22.60;35.60;;;;;;6156265;28;80843;-62
2022/02/06 00:06:21;;;;;;;10.65;6.32;;;22.60;35.60;;;;;;6161086;28;81216;-63
2022/02/06 00:09:21;;;;;;;11.57;6.75;;;22.60;35.50;;;;;;6157269;28;80460;-63
2022/02/06 00:12:22;;;;;;;9.65;5.60;;;22.60;35.50;;;;;;6155162;28;87076;-63
2022/02/06 00:15:23;;;;;;;12.15;6.60;;;22.60;35.50;;;;;;6154789;28;81629;-63
2022/02/06 00:18:24;;;;;;;11.63;6.05;;;22.60;35.40;;;;;;6170000;28;81061;-63
2022/02/06 00:21:24;;;;;;;11.43;6.07;;;22.60;35.30;;;;;;6180379;28;80592;-63
2022/02/06 00:24:34;;;;;;;15.20;5.38;;;22.50;35.30;;;;;;6179153;28;80746;-62
2022/02/06 00:30:49;;;;;;;10.73;6.00;;;22.50;35.20;;;;;;6178628;28;81083;-62
2022/02/06 00:34:30;;;;;;;8.93;5.13;;;22.50;35.10;;;;;;6180013;28;84478;-63
2022/02/06 00:41:14;;;;;;;7.88;4.90;;;22.50;35.10;;;;;;6183586;28;81991;-64
2022/02/06 00:43:53;;;;;;;11.55;5.07;;;22.50;35.10;;;;;;6174603;28;80547;-63
2022/02/06 00:46:57;;;;;;;9.07;4.75;;;22.50;35.00;;;;;;6185212;28;80599;-65
2022/02/06 00:49:59;;;;;;;9.95;5.30;;;22.50;35.10;;;;;;6182229;28;80839;-64
2022/02/06 00:53:07;;;;;;;8.88;5.28;;;22.40;35.00;;;;;;6180072;28;80304;-64
2022/02/06 00:56:07;;;;;;;6.78;4.30;;;22.40;35.10;;;;;;6184336;28;81649;-63
2022/02/06 00:59:08;;;;;;;8.00;4.57;;;22.40;35.10;;;;;;6182052;28;81933;-65
2022/02/06 01:02:08;;;;;;;8.80;5.10;;;22.40;35.10;;;;;;6183523;28;80431;-65
2022/02/06 01:05:09;;;;;;;8.13;4.47;;;22.40;35.10;;;;;;6183562;28;80688;-64
2022/02/06 01:08:09;;;;;;;7.18;4.40;;;22.40;35.00;;;;;;6183014;28;80373;-64
2022/02/06 01:11:11;;;;;;;8.25;4.78;;;22.40;35.20;;;;;;6184583;28;80767;-65
2022/02/06 01:14:21;;;;;;;7.15;4.43;;;22.40;35.10;;;;;;6169460;28;80514;-64
2022/02/06 01:17:31;;;;;;;9.27;4.22;;;22.40;35.10;;;;;;6171898;28;81454;-64
2022/02/06 01:20:40;;;;;;;7.50;3.88;;;22.40;35.20;;;;;;6160786;28;80904;-64
2022/02/06 01:27:07;;;;;;;6.28;3.40;;;22.30;35.10;;;;;;6148544;28;80591;-62
2022/02/06 01:30:21;;;;;;;6.05;3.65;;;22.40;35.10;;;;;;6145681;28;80791;-65
2022/02/06 01:33:36;;;;;;;10.40;4.60;;;22.40;35.30;;;;;;6142190;28;80728;-64
2022/02/06 01:36:48;;;;;;;7.03;3.88;;;22.40;35.10;;;;;;6157354;28;80635;-64
2022/02/06 01:43:03;;;;;;;6.90;3.67;;;22.40;34.90;;;;;;6163441;28;80632;-64
2022/02/06 01:46:20;;;;;;;6.45;3.95;;;22.30;34.90;;;;;;6157814;28;80739;-66
2022/02/06 02:19:07;;;;;;;4.75;2.83;;;22.30;34.40;;;;;;6177432;28;80201;-64
2022/02/06 02:48:15;;;;;;;4.40;2.58;;;22.30;34.20;;;;;;6172813;28;82888;-63
2022/02/06 02:51:18;;;;;;;5.43;2.58;;;22.30;34.90;;;;;;6182358;28;80473;-65
2022/02/06 02:54:24;;;;;;;3.13;2.42;;;22.30;34.30;;;;;;6182665;28;80621;-63
2022/02/06 02:57:40;;;;;;;7.70;2.60;;;22.20;34.20;;;;;;6174044;28;80894;-63
2022/02/06 03:00:50;;;;;;;4.32;2.55;;;22.20;34.20;;;;;;6167754;28;81149;-63
2022/02/06 03:03:50;;;;;;;3.40;2.53;;;22.20;34.10;;;;;;6167488;28;84741;-63
2022/02/06 03:06:51;;;;;;;3.05;2.45;;;22.20;34.10;;;;;;6164717;28;80223;-64
2022/02/06 03:09:51;;;;;;;3.60;2.50;;;22.20;34.10;;;;;;6177196;28;80646;-63
2022/02/06 03:12:53;;;;;;;4.35;2.10;;;22.20;33.90;;;;;;6184331;28;80213;-63
2022/02/06 03:19:14;;;;;;;5.38;2.60;;;22.20;33.90;;;;;;6183116;28;80713;-63
2022/02/06 03:22:20;;;;;;;4.68;2.50;;;22.20;34.00;;;;;;6179647;28;80140;-63
2022/02/06 03:25:22;;;;;;;3.38;2.25;;;22.20;34.50;;;;;;6182564;28;80565;-63
2022/02/06 03:28:22;;;;;;;5.10;2.70;;;22.20;34.60;;;;;;6181478;28;80454;-62
2022/02/06 03:31:23;;;;;;;3.92;2.40;;;22.20;33.90;;;;;;6184858;28;80607;-62
2022/02/06 03:34:23;;;;;;;3.10;2.22;;;22.20;33.90;;;;;;6185041;28;80749;-63
2022/02/06 03:37:24;;;;;;;4.55;1.95;;;22.20;34.00;;;;;;6181915;28;81442;-64
2022/02/06 03:40:27;;;;;;;3.67;2.00;;;22.20;34.00;;;;;;6182682;28;80070;-64
2022/02/06 03:43:39;;;;;;;6.57;2.30;;;22.20;34.00;;;;;;6176203;28;80263;-64
2022/02/06 03:46:50;;;;;;;4.05;2.20;;;22.20;34.10;;;;;;6173868;28;80197;-63
2022/02/06 03:49:56;;;;;;;3.47;2.30;;;22.20;34.30;;;;;;6159297;28;80405;-64
2022/02/06 03:52:56;;;;;;;2.47;1.83;;;22.20;34.40;;;;;;6164979;28;80617;-63
2022/02/06 03:55:59;;;;;;;6.20;2.10;;;22.20;34.50;;;;;;6182697;28;80563;-64
2022/02/06 03:58:59;;;;;;;3.63;2.03;;;22.20;34.50;;;;;;6172687;28;80839;-64
2022/02/06 04:02:00;;;;;;;4.40;2.22;;;22.20;34.50;;;;;;6167377;28;80383;-65
2022/02/06 04:05:02;;;;;;;6.18;2.13;;;22.20;34.60;;;;;;6181348;28;81501;-63
2022/02/06 04:08:02;;;;;;;2.35;1.88;;;22.20;34.50;;;;;;6188166;28;81017;-63
2022/02/06 04:11:07;;;;;;;2.90;2.20;;;22.20;34.50;;;;;;6187580;28;80713;-63
2022/02/06 04:14:23;;;;;;;5.60;2.78;;;22.20;34.50;;;;;;6176848;28;80366;-63
2022/02/06 04:17:25;;;;;;;4.77;2.93;;;22.20;35.10;;;;;;6160565;28;80420;-64
2022/02/06 04:20:25;;;;;;;3.92;2.17;;;22.20;35.20;;;;;;6159004;28;80658;-65
2022/02/06 04:23:26;;;;;;;3.13;2.05;;;22.20;34.20;;;;;;6156205;28;81561;-63
2022/02/06 04:26:26;;;;;;;5.72;2.78;;;22.20;34.00;;;;;;6151496;28;81009;-64
2022/02/06 04:29:27;;;;;;;5.32;2.40;;;22.30;33.80;;;;;;6156167;28;84243;-64
2022/02/06 04:32:28;;;;;;;2.70;1.83;;;22.30;33.80;;;;;;6159724;28;80388;-63
2022/02/06 04:35:33;;;;;;;4.70;2.10;;;22.40;33.50;;;;;;6156901;28;80544;-63
2022/02/06 04:39:02;;;;;;;4.35;2.33;;;22.40;33.50;;;;;;6168036;28;80347;-63
2022/02/06 04:42:28;;;;;;;2.35;1.77;;;22.40;33.20;;;;;;6161940;28;80994;-64
2022/02/06 04:49:18;;;;;;;3.55;2.45;;;22.50;32.70;;;;;;6163118;28;83312;-63
2022/02/06 05:15:04;;;;;;;2.88;1.70;;;22.70;32.60;;;;;;6145316;28;80515;-62
2022/02/06 05:24:48;;;;;;;4.28;2.47;;;22.70;33.00;;;;;;6162742;28;81708;-64
2022/02/06 05:31:11;;;;;;;3.42;2.05;;;22.80;32.70;;;;;;6183462;28;80402;-63
2022/02/06 05:34:12;;;;;;;2.90;1.80;;;22.80;32.70;;;;;;6160538;28;81951;-63
2022/02/06 05:37:12;;;;;;;3.22;1.88;;;22.80;32.80;;;;;;6160670;28;80856;-64
2022/02/06 05:40:13;;;;;;;2.22;1.83;;;22.80;32.80;;;;;;6163015;28;81127;-64
2022/02/06 05:43:13;;;;;;;4.25;2.05;;;22.80;32.80;;;;;;6160137;28;80968;-64
2022/02/06 05:46:14;;;;;;;3.10;1.75;;;22.80;32.80;;;;;;6165557;28;80304;-63
2022/02/06 05:49:14;;;;;;;2.60;1.98;;;22.80;32.70;;;;;;6167628;28;80638;-64
2022/02/06 05:52:15;;;;;;;5.30;1.60;;;22.80;32.90;;;;;;6162528;28;81270;-63
2022/02/06 05:55:15;;;;;;;2.88;1.80;;;22.80;33.10;;;;;;6157479;28;81211;-64
2022/02/06 05:58:16;;;;;;;2.78;1.90;;;22.80;33.00;;;;;;6164033;28;80896;-65
2022/02/06 06:01:16;;;;;;;2.83;2.10;;;22.80;33.00;;;;;;6198336;28;80766;-65
2022/02/06 06:04:16;;;;;;;3.47;1.80;;;22.80;33.10;;;;;;6184753;28;81158;-66
2022/02/06 06:07:17;;;;;;;2.58;1.50;;;22.90;33.30;;;;;;6185618;28;80784;-65
2022/02/06 06:10:17;;;;;;;6.22;2.60;;;22.80;33.30;;;;;;6191364;28;80459;-66
2022/02/06 06:13:18;;;;;;;4.22;2.28;;;22.90;33.60;;;;;;6185701;28;80487;-65
2022/02/06 06:16:19;;;;;;;3.95;1.77;;;22.90;33.70;;;;;;6182467;28;80888;-64
2022/02/06 06:19:19;;;;;;;5.20;2.25;;;22.90;33.70;;;;;;6182538;28;80803;-62
2022/02/06 06:22:21;;;;;;;4.63;1.80;;;22.90;34.10;;;;;;6183763;28;81916;-63
2022/02/06 06:25:23;;;;;;;7.75;1.90;;;22.90;34.70;;;;;;6183447;28;80346;-63
2022/02/06 06:28:24;;;;;;;3.58;1.95;;;22.90;35.10;;;;;;6173360;28;80430;-65
2022/02/06 06:31:26;;;;;;;2.75;1.60;;;22.90;34.90;;;;;;6184168;28;80278;-63
2022/02/06 06:34:26;;;;;;;3.58;2.00;;;22.90;34.90;;;;;;6183733;28;80640;-63
2022/02/06 06:37:27;;;;;;;4.15;1.50;;;22.90;35.70;;;;;;6184633;28;80369;-63
2022/02/06 06:40:27;;;;;;;1.88;1.40;;;22.90;35.80;;;;;;6184260;28;80322;-63
2022/02/06 06:43:28;;;;;;;3.67;1.45;;;22.90;35.40;;;;;;6182742;28;81525;-62
2022/02/06 06:46:28;;;;;;;3.55;1.65;;;22.90;35.80;;;;;;6189458;28;80291;-62
2022/02/06 06:49:29;;;;;;;4.95;1.75;;;22.90;36.20;;;;;;6182387;28;80888;-63
2022/02/06 06:52:29;;;;;;;2.10;1.33;;;22.90;35.70;;;;;;6184158;28;80815;-65
2022/02/06 06:55:32;;;;;;;3.67;2.00;;;22.80;35.50;;;;;;6171791;28;80694;-62
2022/02/06 06:58:41;;;;;;;2.40;1.65;;;22.80;35.60;;;;;;6172427;28;81163;-62
2022/02/06 07:01:47;;;;;;;4.63;2.17;;;22.80;36.00;;;;;;6184273;28;85139;-62
2022/02/06 07:04:48;;;;;;;4.40;2.15;;;22.90;35.90;;;;;;6182026;28;80403;-63
2022/02/06 07:07:48;;;;;;;5.35;2.63;;;22.80;36.30;;;;;;6170447;28;80523;-64
2022/02/06 07:10:49;;;;;;;3.45;2.10;;;22.80;37.40;;;;;;6177456;28;80364;-63
2022/02/06 07:13:49;;;;;;;5.85;2.53;;;22.80;37.50;;;;;;6176489;28;80500;-63
2022/02/06 07:16:50;;;;;;;5.70;2.17;;;22.80;37.60;;;;;;6181289;28;80106;-62
2022/02/06 07:19:50;;;;;;;9.68;2.22;;;22.80;37.50;;;;;;6182710;28;80593;-64
2022/02/06 07:22:51;;;;;;;5.15;2.00;;;22.80;37.50;;;;;;6172866;28;80411;-63
2022/02/06 07:25:53;;;;;;;4.07;1.80;;;22.90;37.40;;;;;;6173059;28;80969;-66
2022/02/06 07:28:58;;;;;;;5.13;1.80;;;22.80;39.10;;;;;;6180951;28;80242;-64
2022/02/06 07:32:00;;;;;;;2.37;1.50;;;22.70;40.50;;;;;;6169680;28;80099;-65
2022/02/06 07:35:01;;;;;;;1.88;1.50;;;22.50;41.60;;;;;;6185716;28;80256;-64
2022/02/06 07:38:01;;;;;;;2.65;1.65;;;22.50;42.30;;;;;;6182408;28;80802;-66
2022/02/06 07:41:02;;;;;;;3.75;2.05;;;22.50;42.20;;;;;;6180831;28;80915;-64
2022/02/06 07:44:02;;;;;;;6.03;2.20;;;22.50;42.80;;;;;;6180070;28;81531;-65
2022/02/06 07:47:14;;;;;;;4.95;2.53;;;22.40;42.90;;;;;;6182208;28;82992;-64
2022/02/06 07:50:14;;;;;;;6.85;2.00;;;22.40;43.10;;;;;;6181748;28;80295;-63
2022/02/06 07:53:18;;;;;;;2.20;1.52;;;22.40;44.10;;;;;;6181171;28;80632;-65
2022/02/06 07:56:18;;;;;;;3.05;2.00;;;22.50;41.80;;;;;;6181999;28;81510;-64
2022/02/06 07:59:20;;;;;;;4.93;2.03;;;22.50;38.60;;;;;;6183539;28;82674;-65
2022/02/06 08:02:21;;;;;;;2.78;1.80;;;22.50;37.50;;;;;;6181946;28;80319;-64
2022/02/06 08:05:21;;;;;;;2.20;1.73;;;22.50;36.50;;;;;;6184497;28;82565;-65
2022/02/06 08:08:22;;;;;;;4.97;2.45;;;22.50;35.60;;;;;;6182364;28;80549;-65
2022/02/06 08:11:23;;;;;;;2.63;1.35;;;22.50;35.80;;;;;;6181892;28;80911;-64
2022/02/06 08:17:42;;;;;;;2.67;1.65;;;22.40;37.60;;;;;;6178767;28;80552;-64
2022/02/06 08:20:43;;;;;;;2.35;1.60;;;22.40;38.70;;;;;;6179608;28;81323;-63
2022/02/06 08:23:44;;;;;;;1.63;1.35;;;22.40;39.30;;;;;;6181267;28;81440;-62
2022/02/06 08:26:44;;;;;;;2.45;1.48;;;22.50;39.90;;;;;;6182037;28;81038;-63
2022/02/06 08:29:46;;;;;;;4.55;1.95;;;22.60;39.40;;;;;;6177577;28;81145;-63
2022/02/06 08:32:48;;;;;;;4.35;1.40;;;22.70;39.00;;;;;;6183258;28;80574;-64
2022/02/06 08:35:49;;;;;;;3.95;1.73;;;22.80;39.10;;;;;;6180319;28;81651;-64
2022/02/06 08:38:50;;;;;;;4.20;1.45;;;22.80;39.10;;;;;;6162120;28;80426;-65
2022/02/06 08:41:50;;;;;;;5.32;1.58;;;22.90;39.10;;;;;;6159498;28;80309;-64
2022/02/06 08:44:51;;;;;;;1.92;1.15;;;22.90;39.30;;;;;;6143860;28;80586;-64
2022/02/06 08:47:51;;;;;;;3.40;1.80;;;22.90;39.40;;;;;;6143424;28;80465;-63
2022/02/06 08:50:52;;;;;;;1.80;1.40;;;23.00;39.20;;;;;;6157695;28;80697;-69
2022/02/06 08:53:52;;;;;;;3.38;1.50;;;23.00;39.20;;;;;;6162742;28;80524;-64
2022/02/06 08:56:53;;;;;;;4.43;1.60;;;23.00;39.10;;;;;;6169512;28;80612;-64
2022/02/06 08:59:54;;;;;;;1.92;1.40;;;23.00;39.40;;;;;;6152673;28;81838;-63
2022/02/06 09:02:54;;;;;;;3.92;2.10;;;23.00;38.90;;;;;;6160630;28;81300;-64
2022/02/06 09:05:55;;;;;;;1.95;1.42;;;23.00;39.20;;;;;;6158803;28;80508;-63
2022/02/06 09:08:57;;;;;;;2.20;1.58;;;23.00;39.10;;;;;;6179641;28;82896;-63
2022/02/06 09:11:59;;;;;;;2.10;1.67;;;23.00;39.20;;;;;;6187519;28;80611;-64
2022/02/06 09:15:00;;;;;;;4.20;1.30;;;23.00;39.70;;;;;;6182290;28;80600;-65
2022/02/06 09:18:00;;;;;;;2.25;1.88;;;23.00;39.60;;;;;;6184515;28;81392;-65
2022/02/06 09:21:01;;;;;;;2.47;1.42;;;23.00;39.80;;;;;;6183266;28;81461;-64
2022/02/06 09:24:01;;;;;;;4.63;2.03;;;23.10;39.90;;;;;;6184367;28;80958;-67
2022/02/06 09:27:02;;;;;;;3.63;1.63;;;23.00;40.40;;;;;;6183605;28;82831;-65
2022/02/06 09:30:02;;;;;;;3.30;1.95;;;23.00;40.20;;;;;;6184736;28;83189;-65
2022/02/06 09:36:03;;;;;;;3.10;1.60;;;23.00;40.50;;;;;;6184619;28;80838;-65
2022/02/06 09:39:04;;;;;;;3.88;2.03;;;23.00;40.40;;;;;;6181736;28;80312;-64
2022/02/06 09:42:04;;;;;;;7.93;1.90;;;23.00;40.60;;;;;;6184838;28;80611;-66
2022/02/06 09:45:05;;;;;;;4.10;1.80;;;23.10;40.90;;;;;;6183963;28;80816;-66
2022/02/06 09:48:05;;;;;;;2.78;1.70;;;23.10;40.50;;;;;;6183724;28;80560;-66
2022/02/06 09:51:06;;;;;;;7.20;2.03;;;23.20;40.80;;;;;;6184690;28;80673;-64
2022/02/06 09:54:06;;;;;;;2.63;1.88;;;23.20;41.20;;;;;;6187139;28;80930;-65
2022/02/06 09:57:11;;;;;;;2.55;1.65;;;23.20;41.40;;;;;;6185154;28;82983;-65
2022/02/06 10:00:12;;;;;;;2.85;2.00;;;23.20;41.40;;;;;;6181827;28;86174;-64
2022/02/06 10:03:15;;;;;;;2.38;1.70;;;23.20;41.80;;;;;;6199218;28;80683;-65
2022/02/06 10:06:16;;;;;;;6.03;1.90;;;23.20;42.20;;;;;;6185195;28;80371;-63
2022/02/06 10:09:16;;;;;;;5.72;1.83;;;23.20;42.50;;;;;;6183287;28;81476;-64
2022/02/06 10:12:17;;;;;;;2.00;1.50;;;23.20;42.80;;;;;;6189554;28;80870;-64
2022/02/06 10:15:17;;;;;;;4.55;2.00;;;23.20;42.80;;;;;;6182473;28;81221;-63
2022/02/06 10:18:18;;;;;;;2.78;1.90;;;23.20;42.90;;;;;;6181804;28;80404;-65
2022/02/06 10:21:22;;;;;;;3.72;1.60;;;23.20;42.50;;;;;;6182597;28;81634;-65
2022/02/06 10:24:28;;;;;;;2.10;1.60;;;23.20;42.10;;;;;;6176556;28;80250;-66
2022/02/06 10:27:28;;;;;;;2.38;1.67;;;23.20;42.20;;;;;;6185400;28;80653;-67
2022/02/06 10:30:37;;;;;;;2.72;1.60;;;23.10;41.90;;;;;;6185493;28;81491;-67
2022/02/06 10:33:37;;;;;;;2.05;1.45;;;23.10;42.00;;;;;;6182931;28;82984;-68
2022/02/06 10:36:38;;;;;;;2.70;1.50;;;23.10;42.30;;;;;;6186692;28;80264;-68
2022/02/06 10:39:40;;;;;;;3.83;2.22;;;23.00;41.80;;;;;;6192908;28;80848;-67
2022/02/06 10:42:41;;;;;;;3.35;1.58;;;23.00;42.30;;;;;;6180983;28;80833;-67
2022/02/06 10:45:42;;;;;;;1.98;1.50;;;23.00;42.40;;;;;;6181683;28;80379;-67
2022/02/06 10:48:42;;;;;;;1.92;1.70;;;23.00;42.60;;;;;;6181461;28;83590;-67
2022/02/06 10:51:43;;;;;;;3.13;2.00;;;23.00;41.90;;;;;;6185822;28;81025;-66
2022/02/06 10:54:43;;;;;;;2.60;1.60;;;23.00;41.90;;;;;;6184966;28;81592;-67
2022/02/06 10:57:44;;;;;;;2.83;1.90;;;22.90;41.60;;;;;;6183791;28;80742;-66
2022/02/06 11:00:44;;;;;;;2.42;1.70;;;22.90;41.30;;;;;;6180723;28;80642;-66
2022/02/06 11:03:49;;;;;;;5.93;3.95;;;22.90;41.20;;;;;;6193096;28;83264;-65
2022/02/06 11:07:04;;;;;;;81.80;40.92;;;22.90;41.10;;;;;;6184399;28;80845;-66
2022/02/06 11:10:04;;;;;;;160.68;79.35;;;22.90;41.10;;;;;;6176422;28;82879;-66
2022/02/06 11:13:05;;;;;;;180.88;88.45;;;22.90;41.80;;;;;;6179758;28;84655;-65
2022/02/06 11:16:09;;;;;;;150.80;72.55;;;22.90;42.00;;;;;;6178568;28;83435;-66
2022/02/06 11:19:09;;;;;;;128.57;61.03;;;22.90;42.20;;;;;;6179906;28;83059;-65
2022/02/06 11:22:10;;;;;;;107.88;52.33;;;22.90;42.20;;;;;;6179004;28;83414;-69
2022/02/06 11:25:10;;;;;;;106.90;45.95;;;22.90;42.20;;;;;;6177449;28;83740;-68
2022/02/06 11:28:11;;;;;;;73.13;37.78;;;23.00;42.60;;;;;;6154590;28;84846;-64
2022/02/06 11:31:12;;;;;;;67.50;31.65;;;22.90;43.10;;;;;;6156053;28;84458;-66
2022/02/06 11:34:16;;;;;;;48.83;26.00;;;22.90;42.40;;;;;;6157302;28;82931;-65
2022/02/06 11:43:56;;;;;;;31.45;16.42;;;22.90;42.20;;;;;;6153616;28;83189;-62
2022/02/06 11:46:56;;;;;;;30.95;14.80;;;22.90;42.20;;;;;;6159081;28;83518;-63
2022/02/06 11:49:57;;;;;;;29.65;14.43;;;22.90;42.40;;;;;;6142178;28;83134;-61
2022/02/06 11:52:57;;;;;;;26.00;11.75;;;22.90;42.30;;;;;;6156391;28;83614;-62
2022/02/06 11:55:58;;;;;;;23.85;11.23;;;22.80;42.30;;;;;;6154440;28;82924;-66
2022/02/06 11:58:59;;;;;;;23.60;11.32;;;22.80;42.40;;;;;;6149710;28;84575;-64
2022/02/06 12:02:00;;;;;;;16.95;8.93;;;22.80;42.40;;;;;;6157294;28;83144;-64
2022/02/06 12:05:00;;;;;;;14.05;8.32;;;22.80;42.90;;;;;;6179125;28;82030;-69
2022/02/06 12:08:01;;;;;;;13.23;6.95;;;22.80;42.60;;;;;;6183745;28;80294;-62
2022/02/06 12:11:01;;;;;;;17.00;7.47;;;22.80;43.00;;;;;;6182356;28;80599;-71
2022/02/06 12:14:28;;;;;;;14.35;6.53;;;22.80;42.40;;;;;;6220860;27;75317;-64
2022/02/06 12:20:35;;;;;;;11.80;5.53;;;22.80;42.60;;;;;;6174410;28;80882;-64
2022/02/06 12:23:37;;;;;;;9.43;4.53;;;22.80;42.60;;;;;;6175270;28;80690;-64
2022/02/06 12:26:41;;;;;;;9.07;4.25;;;22.80;42.30;;;;;;6176718;28;80760;-65
2022/02/06 12:29:43;;;;;;;6.13;3.35;;;22.80;42.30;;;;;;6178238;28;82088;-64
2022/02/06 12:32:44;;;;;;;6.97;3.78;;;22.80;42.50;;;;;;6192992;28;80609;-65
2022/02/06 12:39:04;;;;;;;5.35;3.25;;;22.90;42.40;;;;;;6176909;28;80654;-64
2022/02/06 12:42:08;;;;;;;5.45;3.10;;;23.00;42.50;;;;;;6178778;28;80950;-64
2022/02/06 12:45:09;;;;;;;5.40;2.67;;;23.00;42.30;;;;;;6176877;28;81175;-65
2022/02/06 12:48:10;;;;;;;4.68;2.95;;;23.00;42.30;;;;;;6173490;28;80071;-65
2022/02/06 12:51:10;;;;;;;4.55;2.40;;;23.00;42.20;;;;;;6182052;28;81297;-65
2022/02/06 12:54:11;;;;;;;4.07;2.95;;;23.10;42.10;;;;;;6185391;28;80267;-62
2022/02/06 12:57:14;;;;;;;4.07;2.13;;;23.10;43.00;;;;;;6178988;28;82432;-63
2022/02/06 13:00:14;;;;;;;3.63;2.63;;;23.10;42.10;;;;;;6171320;28;81885;-62
2022/02/06 13:03:15;;;;;;;4.00;2.45;;;23.10;41.90;;;;;;6168904;28;80494;-62
2022/02/06 13:06:18;;;;;;;3.67;2.40;;;23.20;43.00;;;;;;6170903;28;80501;-63
2022/02/06 13:09:18;;;;;;;3.40;2.15;;;23.40;42.10;;;;;;6177383;28;81303;-65
2022/02/06 13:16:14;;;;;;;3.33;2.28;;;23.30;42.00;;;;;;6168788;28;81583;-67
2022/02/06 13:18:59;;;;;;;3.92;2.10;;;23.30;41.60;;;;;;6177270;28;85447;-73
2022/02/06 13:25:34;;;;;;;4.00;2.00;;;23.30;41.80;;;;;;6154874;28;81089;-67
2022/02/06 13:28:49;;;;;;;3.40;2.08;;;23.30;42.10;;;;;;6153816;28;80491;-67
2022/02/06 13:32:11;;;;;;;3.20;1.83;;;23.30;41.50;;;;;;6157813;28;80485;-66
2022/02/06 13:38:21;;;;;;;2.20;1.55;;;23.30;42.10;;;;;;6152387;28;81451;-67
2022/02/06 13:41:25;;;;;;;3.92;1.83;;;23.30;41.60;;;;;;6156882;28;81041;-66
2022/02/06 13:44:26;;;;;;;2.75;1.83;;;23.30;41.50;;;;;;6157891;28;81439;-65
2022/02/06 13:47:27;;;;;;;3.10;1.88;;;23.30;41.20;;;;;;6160448;28;81536;-65
2022/02/06 13:50:28;;;;;;;3.33;1.77;;;23.20;40.90;;;;;;6160647;28;87423;-65
2022/02/06 13:53:33;;;;;;;2.67;1.58;;;23.20;40.90;;;;;;6159825;28;81231;-64
2022/02/06 13:56:33;;;;;;;5.22;1.55;;;23.20;40.70;;;;;;6161632;28;80195;-64
2022/02/06 13:59:34;;;;;;;2.92;1.75;;;23.20;41.10;;;;;;6158633;28;80859;-64
2022/02/06 14:02:34;;;;;;;2.92;1.88;;;23.20;41.00;;;;;;6157353;28;80734;-64
2022/02/06 14:05:35;;;;;;;1.90;1.40;;;23.20;41.10;;;;;;6158325;28;81264;-65
2022/02/06 14:08:37;;;;;;;2.13;1.63;;;23.20;41.60;;;;;;6148594;28;81006;-65
2022/02/06 14:11:38;;;;;;;2.03;1.40;;;23.20;41.40;;;;;;6160566;28;81375;-65
2022/02/06 14:14:38;;;;;;;3.20;1.77;;;23.10;41.40;;;;;;6159216;28;80822;-68
2022/02/06 14:17:41;;;;;;;3.08;1.73;;;23.10;41.80;;;;;;6163135;28;80829;-69
2022/02/06 14:20:42;;;;;;;1.55;1.40;;;23.10;41.80;;;;;;6160939;28;80342;-68
2022/02/06 14:23:43;;;;;;;3.45;1.60;;;23.00;41.90;;;;;;6159038;28;81631;-66
2022/02/06 14:26:43;;;;;;;1.95;1.55;;;23.10;42.00;;;;;;6160592;28;83078;-66
2022/02/06 14:29:44;;;;;;;1.77;1.45;;;23.00;42.10;;;;;;6159739;28;80975;-66
2022/02/06 14:32:44;;;;;;;2.83;1.58;;;23.10;42.30;;;;;;6159075;28;80477;-68
2022/02/06 14:35:46;;;;;;;2.67;1.70;;;23.00;43.10;;;;;;6154641;28;80108;-69
2022/02/06 14:38:49;;;;;;;4.22;1.60;;;23.00;42.80;;;;;;6154521;28;81636;-65
2022/02/06 14:41:59;;;;;;;4.97;1.50;;;23.00;42.90;;;;;;6152661;28;80340;-65
2022/02/06 14:45:00;;;;;;;3.15;1.95;;;23.00;44.00;;;;;;6157431;28;81761;-67
2022/02/06 14:48:00;;;;;;;4.45;1.50;;;23.10;44.30;;;;;;6163113;28;82140;-66
2022/02/06 14:51:01;;;;;;;2.45;1.38;;;23.00;44.40;;;;;;6160200;28;83608;-66
2022/02/06 14:54:04;;;;;;;4.03;1.90;;;23.00;44.40;;;;;;6155257;28;81519;-67
2022/02/06 14:57:05;;;;;;;3.47;1.92;;;23.00;44.20;;;;;;6159705;28;80134;-66
2022/02/06 15:00:05;;;;;;;2.13;1.45;;;23.00;44.50;;;;;;6159704;28;80890;-67
2022/02/06 15:03:06;;;;;;;3.90;1.73;;;23.00;44.30;;;;;;6157739;28;80807;-66
2022/02/06 15:06:06;;;;;;;2.65;1.90;;;23.00;44.00;;;;;;6158842;28;80855;-66
2022/02/06 15:09:07;;;;;;;2.17;1.58;;;22.90;43.90;;;;;;6153526;28;80275;-63
2022/02/06 15:12:08;;;;;;;4.85;1.75;;;22.90;43.70;;;;;;6156486;28;80770;-66
2022/02/06 15:15:09;;;;;;;4.95;2.05;;;22.90;44.10;;;;;;6159649;28;81759;-65
2022/02/06 15:21:29;;;;;;;2.70;1.80;;;22.90;44.20;;;;;;6154580;28;80633;-64
2022/02/06 15:24:30;;;;;;;5.35;1.90;;;22.80;44.30;;;;;;6156462;28;81854;-65
2022/02/06 15:27:30;;;;;;;6.50;2.00;;;22.80;44.10;;;;;;6156445;28;80829;-66
2022/02/06 15:30:31;;;;;;;3.28;2.20;;;22.80;44.50;;;;;;6158005;28;82863;-64
2022/02/06 15:33:31;;;;;;;3.28;2.08;;;22.80;44.30;;;;;;6150855;28;80437;-67
2022/02/06 15:36:34;;;;;;;4.53;2.28;;;22.80;44.10;;;;;;6146310;28;81279;-65
2022/02/06 15:39:36;;;;;;;3.05;2.05;;;22.80;44.10;;;;;;6147801;28;81651;-66
2022/02/06 15:42:37;;;;;;;8.30;2.20;;;22.80;43.50;;;;;;6156879;28;80154;-67
2022/02/06 15:45:39;;;;;;;3.15;1.70;;;22.80;42.90;;;;;;6153231;28;81273;-66
2022/02/06 15:48:39;;;;;;;5.53;2.13;;;22.80;42.70;;;;;;6158190;28;80882;-65
2022/02/06 15:51:40;;;;;;;4.65;1.75;;;22.80;42.30;;;;;;6160964;28;80446;-66
2022/02/06 15:54:40;;;;;;;5.55;2.08;;;22.90;42.00;;;;;;6149885;28;81241;-66
2022/02/06 15:57:41;;;;;;;4.97;2.80;;;22.90;41.90;;;;;;6160305;28;81418;-65
2022/02/06 16:00:42;;;;;;;10.23;2.88;;;22.80;41.80;;;;;;6159413;28;80411;-66
2022/02/06 16:03:42;;;;;;;5.40;2.75;;;22.80;41.50;;;;;;6160717;28;81958;-65
2022/02/06 16:06:43;;;;;;;5.18;2.50;;;22.80;41.90;;;;;;6159007;28;83704;-66
2022/02/06 16:09:44;;;;;;;4.63;2.25;;;22.80;42.00;;;;;;6159040;28;80477;-64
2022/02/06 16:12:44;;;;;;;5.45;2.88;;;22.80;41.90;;;;;;6159209;28;80463;-66
2022/02/06 16:15:45;;;;;;;4.43;2.63;;;22.90;41.90;;;;;;6150995;28;81702;-67
2022/02/06 16:18:45;;;;;;;6.75;2.63;;;22.90;41.30;;;;;;6150733;28;80961;-66
2022/02/06 16:21:46;;;;;;;6.45;2.50;;;22.90;41.10;;;;;;6159320;28;80464;-67
2022/02/06 16:24:46;;;;;;;7.28;2.45;;;22.90;40.80;;;;;;6157126;28;80688;-67
2022/02/06 16:27:47;;;;;;;4.78;2.67;;;23.00;40.90;;;;;;6152986;28;81027;-70
2022/02/06 16:30:49;;;;;;;8.48;3.15;;;23.00;40.80;;;;;;6157961;28;82122;-66
2022/02/06 16:33:50;;;;;;;5.55;2.88;;;23.10;40.30;;;;;;6157856;28;80984;-66
2022/02/06 16:36:50;;;;;;;5.57;3.20;;;23.00;39.80;;;;;;6158725;28;80468;-65
2022/02/06 16:39:51;;;;;;;9.35;2.50;;;23.10;40.20;;;;;;6156203;28;80433;-65
2022/02/06 16:42:51;;;;;;;7.70;2.95;;;23.20;40.40;;;;;;6157029;28;80549;-66
2022/02/06 16:45:52;;;;;;;4.85;2.88;;;23.10;40.10;;;;;;6155967;28;83291;-64
2022/02/06 16:48:52;;;;;;;108.05;50.75;;;23.20;39.80;;;;;;6158126;28;83184;-66
2022/02/06 16:51:53;;;;;;;155.45;76.38;;;23.20;39.90;;;;;;6154090;28;82789;-64
2022/02/06 16:54:53;;;;;;;207.15;98.13;;;23.20;39.70;;;;;;6154992;28;83191;-65
2022/02/06 16:57:54;;;;;;;143.27;72.60;;;23.20;39.30;;;;;;6154511;28;84350;-65
2022/02/06 17:00:54;;;;;;;132.30;64.30;;;23.30;39.30;;;;;;6158221;28;84055;-64
2022/02/06 17:03:55;;;;;;;115.13;54.60;;;23.20;38.80;;;;;;6155581;28;84406;-64
2022/02/06 17:06:55;;;;;;;102.65;51.50;;;23.20;38.10;;;;;;6151627;28;83280;-67
2022/02/06 17:09:56;;;;;;;87.65;44.53;;;23.20;38.10;;;;;;6154560;28;83167;-65
2022/02/06 17:12:56;;;;;;;71.82;35.97;;;23.20;38.10;;;;;;6159251;28;83321;-65
2022/02/06 17:15:57;;;;;;;66.05;34.40;;;23.20;38.20;;;;;;6156996;28;83502;-63
2022/02/06 17:18:57;;;;;;;62.22;31.35;;;23.20;37.90;;;;;;6155217;28;85330;-63
2022/02/06 17:21:58;;;;;;;53.75;26.42;;;23.20;37.30;;;;;;6156041;28;82972;-64
2022/02/06 17:24:59;;;;;;;47.63;22.90;;;23.20;37.10;;;;;;6151045;28;83780;-64
2022/02/06 17:27:59;;;;;;;41.92;21.10;;;23.20;37.10;;;;;;6154109;28;83219;-67
2022/02/06 17:31:00;;;;;;;37.58;18.83;;;23.20;37.60;;;;;;6151912;28;83363;-64
2022/02/06 17:34:00;;;;;;;41.15;18.35;;;23.20;37.60;;;;;;6172386;28;83852;-65
2022/02/06 17:37:01;;;;;;;33.05;16.70;;;23.20;37.70;;;;;;6171734;28;83289;-63
2022/02/06 17:40:01;;;;;;;25.70;14.82;;;23.20;38.00;;;;;;6158014;28;82992;-63
2022/02/06 17:43:02;;;;;;;28.08;12.65;;;23.20;37.80;;;;;;6159056;28;83692;-65
2022/02/06 17:46:02;;;;;;;23.20;11.38;;;23.20;37.80;;;;;;6159049;28;83041;-67
2022/02/06 17:49:03;;;;;;;29.80;11.40;;;23.20;38.10;;;;;;6166672;28;83465;-64
2022/02/06 17:52:03;;;;;;;20.42;10.30;;;23.20;38.20;;;;;;6155436;28;84269;-63
2022/02/06 17:55:04;;;;;;;18.67;9.60;;;23.10;38.30;;;;;;6150061;28;83712;-63
2022/02/06 17:58:05;;;;;;;16.70;8.07;;;23.10;38.50;;;;;;6150127;28;82935;-63
2022/02/06 18:01:05;;;;;;;15.35;8.27;;;23.10;38.40;;;;;;6160789;28;80325;-64
2022/02/06 18:04:06;;;;;;;11.20;7.32;;;23.10;38.40;;;;;;6172058;28;80434;-63